createdAt,value
2023-06-19T00:00:01.516Z,654.30
2023-06-19T00:10:02.245Z,631.80
2023-06-19T00:20:02.016Z,644.10
2023-06-19T00:30:01.084Z,509.50
2023-06-19T00:40:01.062Z,667.10
2023-06-19T00:50:01.257Z,629.60
2023-06-19T01:00:01.189Z,645.00
2023-06-19T01:10:01.123Z,661.30
2023-06-19T01:20:02.533Z,658.70
2023-06-19T01:30:02.180Z,660.80
2023-06-19T01:40:01.286Z,642.70
2023-06-19T01:50:01.028Z,620.00
2023-06-19T02:00:01.270Z,625.50
2023-06-19T02:10:01.064Z,638.40
2023-06-19T02:20:01.563Z,644.70
2023-06-19T02:30:01.030Z,544.20
2023-06-19T02:40:01.553Z,516.60
2023-06-19T02:50:01.047Z,626.40
2023-06-19T03:00:01.276Z,518.40
2023-06-19T03:20:01.039Z,465.10
2023-06-19T03:30:01.280Z,464.70
2023-06-19T03:40:01.406Z,477.60
2023-06-19T03:50:11.455Z,462.50
2023-06-19T04:00:01.035Z,498.40
2023-06-19T04:10:01.098Z,485.60
2023-06-19T04:20:01.336Z,465.10
2023-06-19T04:30:01.011Z,464.50
2023-06-19T04:40:01.398Z,457.70
2023-06-19T04:50:01.101Z,432.60
2023-06-19T05:00:01.349Z,431.80
2023-06-19T05:10:01.061Z,461.50
2023-06-19T05:20:01.069Z,439.30
2023-06-19T05:30:01.308Z,447.30
2023-06-19T05:40:01.093Z,467.40
2023-06-19T05:50:01.204Z,495.20
2023-06-19T06:00:01.064Z,518.70
2023-06-19T06:10:01.270Z,522.20
2023-06-19T06:20:01.326Z,574.40
2023-06-19T06:30:01.051Z,536.20
2023-06-19T06:40:01.260Z,538.70
2023-06-19T06:50:01.090Z,569.90
2023-06-19T07:00:01.125Z,585.90
2023-06-19T07:10:01.090Z,714.20
2023-06-19T07:20:01.230Z,698.20
2023-06-19T07:30:01.151Z,513.60
2023-06-19T07:40:01.051Z,480.10
2023-06-19T07:50:01.092Z,454.80
2023-06-19T08:00:01.882Z,320.40
2023-06-19T08:10:11.986Z,228.00
2023-06-19T08:20:01.154Z,242.70
2023-06-19T08:30:01.083Z,243.50
2023-06-19T08:40:01.301Z,192.10
2023-06-19T08:50:02.713Z,243.80
2023-06-19T09:00:01.040Z,267.00
2023-06-19T09:10:01.039Z,214.80
2023-06-19T09:20:01.091Z,187.60
2023-06-19T09:30:01.058Z,210.40
2023-06-19T09:40:01.051Z,202.40
2023-06-19T09:50:01.088Z,185.00
2023-06-19T10:00:02.659Z,181.30
2023-06-19T10:10:01.274Z,222.90
2023-06-19T10:20:01.567Z,229.20
2023-06-19T10:30:14.941Z,227.90
2023-06-19T10:40:01.112Z,258.70
2023-06-19T10:50:01.153Z,239.70
2023-06-19T11:00:01.767Z,211.00
2023-06-19T11:10:01.018Z,223.80
2023-06-19T11:20:02.095Z,235.10
2023-06-19T11:30:01.021Z,187.70
2023-06-19T11:40:01.075Z,187.60
2023-06-19T11:50:01.050Z,243.60
2023-06-19T12:10:03.495Z,201.40
2023-06-19T12:30:01.385Z,490.30
2023-06-19T12:40:00.886Z,793.00
2023-06-19T12:50:01.025Z,869.60
2023-06-19T13:00:01.248Z,886.90
2023-06-19T13:10:01.116Z,845.20
2023-06-19T13:20:01.061Z,877.70
2023-06-19T13:30:01.032Z,856.70
2023-06-19T13:40:01.328Z,875.70
2023-06-19T13:50:01.447Z,874.90
2023-06-19T14:00:01.455Z,793.40
2023-06-19T14:10:02.295Z,573.20
2023-06-19T14:20:01.600Z,437.80
2023-06-19T14:30:01.487Z,413.00
2023-06-19T14:40:01.183Z,272.50
2023-06-19T14:50:01.071Z,315.30
2023-06-19T15:10:02.484Z,297.50
2023-06-19T15:20:01.376Z,354.20
2023-06-19T15:30:01.116Z,268.00
2023-06-19T15:40:01.538Z,207.30
2023-06-19T15:50:01.089Z,171.40
2023-06-19T16:00:01.435Z,205.80
2023-06-19T16:10:01.069Z,217.60
2023-06-19T16:20:01.105Z,173.30
2023-06-19T16:30:01.033Z,194.60
2023-06-19T16:40:01.147Z,169.80
2023-06-19T16:50:01.067Z,176.90
2023-06-19T17:00:01.396Z,182.00
2023-06-19T17:10:01.327Z,143.40
2023-06-19T17:20:01.132Z,206.70
2023-06-19T17:30:01.278Z,137.50
2023-06-19T17:40:01.104Z,159.00
2023-06-19T17:50:01.294Z,151.10
2023-06-19T18:00:03.347Z,143.80
2023-06-19T18:10:01.043Z,166.40
2023-06-19T18:20:01.461Z,156.60
2023-06-19T18:30:04.520Z,158.00
2023-06-19T18:40:02.667Z,138.00
2023-06-19T18:50:01.101Z,158.60
2023-06-19T19:00:01.175Z,146.20
2023-06-19T19:10:01.157Z,156.80
2023-06-19T19:20:01.597Z,119.40
2023-06-19T19:30:01.369Z,126.40
2023-06-19T19:40:00.618Z,129.00
2023-06-19T19:50:01.026Z,143.60
2023-06-19T20:00:03.892Z,140.90
2023-06-19T20:10:01.024Z,137.90
2023-06-19T20:20:00.599Z,137.70
2023-06-19T20:30:01.536Z,190.30
2023-06-19T20:40:01.258Z,130.10
2023-06-19T20:50:01.433Z,166.30
2023-06-19T21:00:01.372Z,114.70
2023-06-19T21:10:01.260Z,109.00
2023-06-19T21:20:01.516Z,89.50
2023-06-19T21:30:01.041Z,176.30
2023-06-19T21:40:01.273Z,210.30
2023-06-19T21:50:01.329Z,235.00
2023-06-19T22:00:01.371Z,344.20
2023-06-19T22:10:01.353Z,576.30
2023-06-19T22:20:01.360Z,658.80
2023-06-19T22:30:01.327Z,659.90
2023-06-19T22:40:01.420Z,685.70
2023-06-19T22:50:01.301Z,638.90
2023-06-19T23:00:03.156Z,629.70
2023-06-19T23:10:01.068Z,567.70
2023-06-19T23:20:01.303Z,525.50
2023-06-19T23:30:01.242Z,469.60
2023-06-19T23:40:01.039Z,307.70
2023-06-19T23:50:02.130Z,368.00
